createdAt,value
2016-12-05T00:00:00.223Z,0
2016-12-05T00:01:15.164Z,0
2016-12-05T00:02:15.178Z,0
2016-12-05T00:03:00.271Z,0
2016-12-05T00:04:15.204Z,0
2016-12-05T00:05:00.301Z,0
2016-12-05T00:06:15.230Z,0
2016-12-05T00:07:00.326Z,0
2016-12-05T00:08:00.347Z,0
2016-12-05T00:09:00.355Z,0
2016-12-05T00:10:00.367Z,0
2016-12-05T00:11:00.393Z,0
2016-12-05T00:12:00.402Z,0
2016-12-05T00:13:00.413Z,0
2016-12-05T00:14:00.427Z,0
2016-12-05T00:15:00.442Z,0
2016-12-05T00:17:00.498Z,0
2016-12-05T00:18:00.487Z,0
2016-12-05T00:19:00.499Z,0
2016-12-05T00:20:15.431Z,0
2016-12-05T00:22:00.596Z,0
2016-12-05T00:24:00.577Z,0
2016-12-05T00:25:00.583Z,0
2016-12-05T00:26:00.604Z,0
2016-12-05T00:27:00.619Z,0
2016-12-05T00:28:00.681Z,0
2016-12-05T00:30:00.651Z,0
2016-12-05T00:31:00.721Z,0
2016-12-05T00:32:00.687Z,0
2016-12-05T00:33:00.752Z,0
2016-12-05T00:34:15.642Z,0
2016-12-05T00:35:00.732Z,0
2016-12-05T00:38:00.826Z,0
2016-12-05T00:39:00.797Z,0
2016-12-05T00:40:00.795Z,0
2016-12-05T00:41:00.817Z,0
2016-12-05T00:42:00.839Z,0
2016-12-05T00:44:00.862Z,0
2016-12-05T00:45:00.873Z,0
2016-12-05T00:46:15.814Z,0
2016-12-05T00:47:00.901Z,0
2016-12-05T00:48:00.917Z,0
2016-12-05T00:49:00.937Z,0
2016-12-05T00:50:00.943Z,0
2016-12-05T00:52:15.895Z,0
2016-12-05T00:53:00.982Z,0
2016-12-05T00:54:01.008Z,0
2016-12-05T00:55:01.022Z,0
2016-12-05T00:56:01.036Z,0
2016-12-05T00:57:01.046Z,0
2016-12-05T00:58:01.058Z,0
2016-12-05T00:59:01.077Z,0
2016-12-05T01:02:01.113Z,0
2016-12-05T01:03:01.125Z,0
2016-12-05T01:04:01.146Z,0
2016-12-05T01:05:01.163Z,0
2016-12-05T01:06:16.129Z,0
2016-12-05T01:07:01.190Z,0
2016-12-05T01:08:16.437Z,0
2016-12-05T01:09:01.228Z,0
2016-12-05T01:10:01.275Z,0
2016-12-05T01:11:01.241Z,0
2016-12-05T01:12:01.256Z,0
2016-12-05T01:13:01.275Z,0
2016-12-05T01:14:01.286Z,0
2016-12-05T01:15:01.297Z,0
2016-12-05T01:16:01.312Z,0
2016-12-05T01:17:01.330Z,0
2016-12-05T01:18:01.347Z,0
2016-12-05T01:20:01.367Z,0
2016-12-05T01:21:01.687Z,0
2016-12-05T01:22:16.328Z,0
2016-12-05T01:25:01.447Z,0
2016-12-05T01:26:01.465Z,0
2016-12-05T01:27:01.469Z,0
2016-12-05T01:28:01.491Z,0
2016-12-05T01:29:01.503Z,0
2016-12-05T01:30:01.519Z,0
2016-12-05T01:31:01.556Z,0
2016-12-05T01:32:01.544Z,0
2016-12-05T01:33:01.565Z,0
2016-12-05T01:34:01.566Z,0
2016-12-05T01:35:01.646Z,0
2016-12-05T01:36:01.606Z,0
2016-12-05T01:37:01.617Z,0
2016-12-05T01:38:01.630Z,0
2016-12-05T01:39:16.564Z,0
2016-12-05T01:40:01.662Z,0
2016-12-05T01:41:01.670Z,0
2016-12-05T01:42:01.688Z,0
2016-12-05T01:43:01.704Z,0
2016-12-05T01:44:01.713Z,0
2016-12-05T01:45:01.729Z,0
2016-12-05T01:46:01.738Z,0
2016-12-05T01:47:01.764Z,0
2016-12-05T01:48:01.773Z,0
2016-12-05T01:49:02.089Z,0
2016-12-05T01:50:16.727Z,0
2016-12-05T01:51:01.815Z,0
2016-12-05T01:52:16.752Z,0
2016-12-05T01:53:01.870Z,0
2016-12-05T01:54:16.780Z,0
2016-12-05T01:55:16.795Z,0
2016-12-05T01:56:16.854Z,0
2016-12-05T01:57:01.896Z,0
2016-12-05T01:58:01.914Z,0
2016-12-05T01:59:01.931Z,0
2016-12-05T02:00:01.935Z,0
2016-12-05T02:01:01.957Z,0
2016-12-05T02:02:01.971Z,0
2016-12-05T02:04:02.002Z,0
2016-12-05T02:05:02.014Z,0
2016-12-05T02:07:02.336Z,0
2016-12-05T02:08:02.055Z,0
2016-12-05T02:09:02.066Z,0
2016-12-05T02:10:02.087Z,0
2016-12-05T02:11:17.064Z,0
2016-12-05T02:12:02.108Z,0
2016-12-05T02:13:02.129Z,0
2016-12-05T02:14:02.135Z,0
2016-12-05T02:15:02.159Z,0
2016-12-05T02:16:02.168Z,0
2016-12-05T02:17:02.200Z,0
2016-12-05T02:18:02.190Z,0
2016-12-05T02:19:02.214Z,0
2016-12-05T02:20:02.224Z,0
2016-12-05T02:21:02.230Z,0
2016-12-05T02:22:02.258Z,0
2016-12-05T02:23:02.268Z,0
2016-12-05T02:24:02.274Z,0
2016-12-05T02:25:02.291Z,0
2016-12-05T02:26:02.312Z,0
2016-12-05T02:27:17.235Z,0
2016-12-05T02:28:02.341Z,0
2016-12-05T02:29:02.359Z,0
2016-12-05T02:30:02.361Z,0
2016-12-05T02:31:02.369Z,0
2016-12-05T02:32:02.691Z,0
2016-12-05T02:33:02.430Z,0
2016-12-05T02:34:02.417Z,0
2016-12-05T02:35:02.433Z,0
2016-12-05T02:36:02.444Z,0
2016-12-05T02:37:17.385Z,0
2016-12-05T02:38:02.469Z,0
2016-12-05T02:39:02.482Z,0
2016-12-05T02:40:17.426Z,0
2016-12-05T02:41:02.512Z,0
2016-12-05T02:42:02.534Z,0
2016-12-05T02:43:17.465Z,0
2016-12-05T02:44:02.567Z,0
2016-12-05T02:45:02.575Z,0
2016-12-05T02:46:02.582Z,0
2016-12-05T02:47:02.929Z,0
2016-12-05T02:48:02.611Z,0
2016-12-05T02:49:02.678Z,0
2016-12-05T02:50:02.640Z,0
2016-12-05T02:52:02.666Z,0
2016-12-05T02:53:02.687Z,0
2016-12-05T02:54:02.692Z,0
2016-12-05T02:55:02.711Z,0
2016-12-05T02:56:02.736Z,0
2016-12-05T02:57:17.660Z,0
2016-12-05T02:58:17.678Z,0
2016-12-05T02:59:17.687Z,0
2016-12-05T03:00:02.784Z,0
2016-12-05T03:01:02.799Z,0
2016-12-05T03:02:02.806Z,0
2016-12-05T03:04:02.835Z,0
2016-12-05T03:05:02.849Z,0
2016-12-05T03:06:02.871Z,0
2016-12-05T03:07:02.886Z,0
2016-12-05T03:08:02.891Z,0
2016-12-05T03:09:02.907Z,0
2016-12-05T03:10:03.123Z,0
2016-12-05T03:11:02.933Z,0
2016-12-05T03:12:02.944Z,0
2016-12-05T03:13:02.968Z,0
2016-12-05T03:14:02.979Z,0
2016-12-05T03:15:02.990Z,0
2016-12-05T03:16:03.003Z,0
2016-12-05T03:17:03.019Z,0
2016-12-05T03:18:03.034Z,0
2016-12-05T03:19:03.046Z,0
2016-12-05T03:20:03.058Z,0
2016-12-05T03:21:03.081Z,0
2016-12-05T03:22:03.089Z,0
2016-12-05T03:23:03.106Z,0
2016-12-05T03:24:03.121Z,0
2016-12-05T03:25:03.135Z,0
2016-12-05T03:26:03.143Z,0
2016-12-05T03:27:03.207Z,0
2016-12-05T03:28:18.097Z,0
2016-12-05T03:29:03.183Z,0
2016-12-05T03:30:18.128Z,0
2016-12-05T03:31:18.134Z,0
2016-12-05T03:32:03.229Z,0
2016-12-05T03:33:03.244Z,0
2016-12-05T03:34:18.176Z,0
2016-12-05T03:35:03.270Z,0
2016-12-05T03:36:03.284Z,0
2016-12-05T03:37:03.329Z,0
2016-12-05T03:38:03.317Z,0
2016-12-05T03:39:03.365Z,0
2016-12-05T03:40:03.338Z,0
2016-12-05T03:41:03.348Z,0
2016-12-05T03:42:03.369Z,0
2016-12-05T03:43:03.388Z,0
2016-12-05T03:44:18.323Z,0
2016-12-05T03:46:18.345Z,0
2016-12-05T03:47:18.359Z,0
2016-12-05T03:48:18.369Z,0
2016-12-05T03:49:03.472Z,0
2016-12-05T03:51:03.497Z,0
2016-12-05T03:52:03.510Z,0
2016-12-05T03:53:03.520Z,0
2016-12-05T03:54:03.535Z,0
2016-12-05T03:56:03.567Z,0
2016-12-05T03:59:03.606Z,0
2016-12-05T04:00:18.539Z,0
2016-12-05T04:01:03.631Z,0
2016-12-05T04:02:18.564Z,0
2016-12-05T04:03:03.665Z,0
2016-12-05T04:04:03.676Z,0
2016-12-05T04:05:03.687Z,0
2016-12-05T04:06:03.712Z,0
2016-12-05T04:07:04.023Z,0
2016-12-05T04:08:03.736Z,0
2016-12-05T04:09:04.048Z,0
2016-12-05T04:10:03.756Z,0
2016-12-05T04:11:04.071Z,0
2016-12-05T04:12:03.785Z,0
2016-12-05T04:13:18.725Z,0
2016-12-05T04:14:18.735Z,0
2016-12-05T04:15:03.825Z,0
2016-12-05T04:16:03.845Z,0
2016-12-05T04:17:03.852Z,0
2016-12-05T04:18:18.789Z,0
2016-12-05T04:19:03.932Z,0
2016-12-05T04:20:03.900Z,0
2016-12-05T04:21:03.906Z,0
2016-12-05T04:22:03.919Z,0
2016-12-05T04:23:03.939Z,0
2016-12-05T04:24:03.945Z,0
2016-12-05T04:25:03.959Z,0
2016-12-05T04:26:04.028Z,0
2016-12-05T04:27:18.916Z,0
2016-12-05T04:28:04.005Z,0
2016-12-05T04:29:04.018Z,0
2016-12-05T04:30:04.034Z,0
2016-12-05T04:31:04.044Z,0
2016-12-05T04:32:04.088Z,0
2016-12-05T04:33:18.995Z,0
2016-12-05T04:34:04.087Z,0
2016-12-05T04:36:04.111Z,0
2016-12-05T04:37:04.126Z,0
2016-12-05T04:38:04.140Z,0
2016-12-05T04:39:04.150Z,0
2016-12-05T04:40:04.175Z,0
2016-12-05T04:41:04.480Z,0
2016-12-05T04:42:19.124Z,0
2016-12-05T04:43:04.218Z,0
2016-12-05T04:44:04.221Z,0
2016-12-05T04:45:04.246Z,0
2016-12-05T04:46:04.260Z,0
2016-12-05T04:47:04.261Z,0
2016-12-05T04:48:19.199Z,0
2016-12-05T04:49:04.287Z,0
2016-12-05T04:50:04.306Z,0
2016-12-05T04:51:04.335Z,0
2016-12-05T04:52:04.337Z,0
2016-12-05T04:53:04.346Z,0
2016-12-05T04:54:04.362Z,0
2016-12-05T04:55:04.378Z,0
2016-12-05T04:56:04.389Z,0
2016-12-05T04:57:04.405Z,0
2016-12-05T04:58:04.415Z,0
2016-12-05T04:59:04.433Z,0
2016-12-05T05:00:04.445Z,0
2016-12-05T05:01:04.455Z,0
2016-12-05T05:02:04.475Z,0
2016-12-05T05:03:19.410Z,0
2016-12-05T05:04:04.501Z,0
2016-12-05T05:05:19.437Z,0
2016-12-05T05:06:04.522Z,0
2016-12-05T05:07:04.544Z,0
2016-12-05T05:09:04.568Z,0
2016-12-05T05:10:04.577Z,0
2016-12-05T05:12:04.610Z,0
2016-12-05T05:13:04.627Z,0
2016-12-05T05:14:04.634Z,0
2016-12-05T05:15:04.652Z,0
2016-12-05T05:16:04.707Z,0
2016-12-05T05:17:04.683Z,0
2016-12-05T05:18:04.689Z,0
2016-12-05T05:19:04.699Z,0
2016-12-05T05:20:04.739Z,0
2016-12-05T05:21:19.651Z,0
2016-12-05T05:22:04.743Z,0
2016-12-05T05:23:19.703Z,0
2016-12-05T05:24:04.822Z,0
2016-12-05T05:25:04.784Z,0
2016-12-05T05:26:04.805Z,0
2016-12-05T05:27:19.744Z,0
2016-12-05T05:28:04.831Z,0
2016-12-05T05:29:04.846Z,0
2016-12-05T05:30:19.782Z,0
2016-12-05T05:31:04.872Z,0
2016-12-05T05:32:04.880Z,0
2016-12-05T05:33:04.890Z,0
2016-12-05T05:34:04.907Z,0
2016-12-05T05:35:04.922Z,0
2016-12-05T05:36:04.941Z,0
2016-12-05T05:37:20.016Z,0
2016-12-05T05:38:04.957Z,0
2016-12-05T05:40:04.994Z,0
2016-12-05T05:41:19.918Z,0
2016-12-05T05:42:05.019Z,0
2016-12-05T05:43:05.064Z,0
2016-12-05T05:44:05.048Z,0
2016-12-05T05:45:05.058Z,0
2016-12-05T05:46:05.125Z,0
2016-12-05T05:47:20.009Z,0
2016-12-05T05:48:05.096Z,0
2016-12-05T05:50:05.120Z,0
2016-12-05T05:51:05.488Z,0
2016-12-05T05:52:20.075Z,0
2016-12-05T05:53:20.090Z,0
2016-12-05T05:54:05.179Z,0
2016-12-05T05:55:05.188Z,0
2016-12-05T05:57:05.273Z,0
2016-12-05T05:58:05.234Z,0
2016-12-05T05:59:05.276Z,0
2016-12-05T06:01:05.279Z,0
2016-12-05T06:02:05.295Z,0
2016-12-05T06:03:05.303Z,0
2016-12-05T06:04:05.314Z,0
2016-12-05T06:05:05.335Z,0
2016-12-05T06:06:20.269Z,0
2016-12-05T06:07:05.351Z,0
2016-12-05T06:08:20.289Z,0
2016-12-05T06:09:05.382Z,0
2016-12-05T06:10:20.314Z,0
2016-12-05T06:11:05.413Z,0
2016-12-05T06:12:05.425Z,0
2016-12-05T06:13:05.439Z,0
2016-12-05T06:14:05.481Z,0
2016-12-05T06:15:05.465Z,0
2016-12-05T06:16:05.481Z,0
2016-12-05T06:17:05.494Z,0
2016-12-05T06:18:05.504Z,0
2016-12-05T06:19:05.521Z,0
2016-12-05T06:20:20.461Z,0
2016-12-05T06:21:05.556Z,0
2016-12-05T06:22:05.563Z,0
2016-12-05T06:23:05.579Z,0
2016-12-05T06:24:05.586Z,0
2016-12-05T06:25:05.605Z,0
2016-12-05T06:27:05.629Z,0
2016-12-05T06:28:05.643Z,4
2016-12-05T06:29:05.653Z,4
2016-12-05T06:30:05.665Z,4
2016-12-05T06:32:05.703Z,0
2016-12-05T06:33:05.713Z,4
2016-12-05T06:34:05.726Z,4
2016-12-05T06:35:05.735Z,4
2016-12-05T06:36:05.754Z,4
2016-12-05T06:37:20.684Z,4
2016-12-05T06:38:20.700Z,8
2016-12-05T06:40:20.727Z,12
2016-12-05T06:41:05.817Z,8
2016-12-05T06:42:05.841Z,16
2016-12-05T06:43:05.847Z,16
2016-12-05T06:44:05.854Z,16
2016-12-05T06:45:05.871Z,20
2016-12-05T06:47:05.896Z,24
2016-12-05T06:48:05.910Z,28
2016-12-05T06:49:05.926Z,28
2016-12-05T06:52:20.891Z,40
2016-12-05T06:54:05.991Z,48
2016-12-05T06:55:06.006Z,52
2016-12-05T06:56:20.944Z,60
2016-12-05T06:57:20.952Z,68
2016-12-05T06:58:06.040Z,68
2016-12-05T07:00:06.076Z,84
2016-12-05T07:01:06.090Z,88
2016-12-05T07:02:06.101Z,92
2016-12-05T07:03:06.114Z,100
2016-12-05T07:04:06.128Z,112
2016-12-05T07:05:06.140Z,120
2016-12-05T07:07:21.094Z,140
2016-12-05T07:08:06.181Z,148
2016-12-05T07:09:06.193Z,156
2016-12-05T07:10:21.128Z,168
2016-12-05T07:11:06.221Z,172
2016-12-05T07:12:21.156Z,184
2016-12-05T07:13:06.251Z,188
2016-12-05T07:14:06.264Z,200
2016-12-05T07:15:06.277Z,220
2016-12-05T07:16:06.293Z,220
2016-12-05T07:17:06.305Z,220
2016-12-05T07:18:06.323Z,232
2016-12-05T07:19:06.333Z,236
2016-12-05T07:20:06.347Z,248
2016-12-05T07:21:06.356Z,268
2016-12-05T07:22:06.373Z,272
2016-12-05T07:24:06.412Z,296
2016-12-05T07:26:06.423Z,336
2016-12-05T07:27:06.444Z,352
2016-12-05T07:28:21.374Z,372
2016-12-05T07:29:21.382Z,396
2016-12-05T07:30:06.524Z,416
2016-12-05T07:31:06.791Z,448
2016-12-05T07:32:06.807Z,472
2016-12-05T07:33:06.514Z,468
2016-12-05T07:34:06.531Z,500
2016-12-05T07:35:06.541Z,532
2016-12-05T07:36:06.556Z,540
2016-12-05T07:37:06.605Z,548
2016-12-05T07:39:06.596Z,596
2016-12-05T07:40:06.919Z,628
2016-12-05T07:41:06.624Z,664
2016-12-05T07:42:06.644Z,704
2016-12-05T07:43:21.571Z,728
2016-12-05T07:44:06.668Z,756
2016-12-05T07:45:06.677Z,740
2016-12-05T07:46:21.606Z,740
2016-12-05T07:47:06.703Z,776
2016-12-05T07:48:06.719Z,824
2016-12-05T07:49:06.738Z,856
2016-12-05T07:50:06.743Z,892
2016-12-05T07:52:06.798Z,868
2016-12-05T07:53:06.792Z,908
2016-12-05T07:54:06.802Z,1008
2016-12-05T07:55:06.808Z,1028
2016-12-05T07:56:21.752Z,1052
2016-12-05T07:57:06.837Z,1064
2016-12-05T07:58:07.156Z,1040
2016-12-05T07:59:21.785Z,1140
2016-12-05T08:00:06.879Z,1164
2016-12-05T08:01:06.895Z,1196
2016-12-05T08:02:06.902Z,1236
2016-12-05T08:03:06.943Z,1196
2016-12-05T08:04:06.928Z,1216
2016-12-05T08:05:06.948Z,1224
2016-12-05T08:06:06.973Z,1236
2016-12-05T08:07:06.969Z,1240
2016-12-05T08:08:06.996Z,1304
2016-12-05T08:09:07.004Z,1336
2016-12-05T08:10:07.016Z,1440
2016-12-05T08:11:07.072Z,1468
2016-12-05T08:12:21.966Z,1500
2016-12-05T08:13:07.058Z,1288
2016-12-05T08:14:07.071Z,1324
2016-12-05T08:15:21.999Z,1432
2016-12-05T08:16:07.089Z,1312
2016-12-05T08:17:07.113Z,1180
2016-12-05T08:19:07.151Z,1316
2016-12-05T08:20:07.143Z,1444
2016-12-05T08:22:22.150Z,1396
2016-12-05T08:23:07.191Z,1432
2016-12-05T08:24:07.196Z,1500
2016-12-05T08:25:07.215Z,1464
2016-12-05T08:26:07.226Z,1456
2016-12-05T08:27:07.242Z,1568
2016-12-05T08:28:07.260Z,1564
2016-12-05T08:29:07.269Z,1532
2016-12-05T08:30:07.577Z,1656
2016-12-05T08:31:22.214Z,1728
2016-12-05T08:32:22.225Z,1616
2016-12-05T08:33:22.243Z,1472
2016-12-05T08:34:07.341Z,1484
2016-12-05T08:35:22.266Z,1548
2016-12-05T08:36:07.373Z,1532
2016-12-05T08:38:22.323Z,1636
2016-12-05T08:39:07.410Z,1660
2016-12-05T08:40:22.346Z,1712
2016-12-05T08:41:07.435Z,1708
2016-12-05T08:42:07.447Z,1756
2016-12-05T08:43:07.463Z,1760
2016-12-05T08:44:22.394Z,1676
2016-12-05T08:45:07.795Z,1604
2016-12-05T08:46:07.500Z,1576
2016-12-05T08:47:22.437Z,1764
2016-12-05T08:48:07.530Z,1880
2016-12-05T08:49:07.538Z,1924
2016-12-05T08:50:07.550Z,1888
2016-12-05T08:51:07.570Z,1900
2016-12-05T08:52:07.579Z,1908
2016-12-05T08:53:07.600Z,1952
2016-12-05T08:54:07.610Z,2056
2016-12-05T08:55:07.626Z,2208
2016-12-05T08:56:07.640Z,2236
2016-12-05T08:57:07.695Z,2232
2016-12-05T08:58:07.664Z,2380
2016-12-05T08:59:07.675Z,2612
2016-12-05T09:00:07.691Z,2664
2016-12-05T09:01:07.703Z,2632
2016-12-05T09:02:07.725Z,2748
2016-12-05T09:03:22.651Z,2936
2016-12-05T09:04:07.752Z,3036
2016-12-05T09:05:07.762Z,2988
2016-12-05T09:06:07.777Z,2992
2016-12-05T09:07:07.797Z,3016
2016-12-05T09:08:07.801Z,3052
2016-12-05T09:09:07.815Z,3260
2016-12-05T09:10:07.828Z,3464
2016-12-05T09:11:07.846Z,3416
2016-12-05T09:13:07.876Z,3956
2016-12-05T09:14:07.891Z,3980
2016-12-05T09:15:07.916Z,4208
2016-12-05T09:16:07.919Z,4376
2016-12-05T09:17:08.231Z,4156
2016-12-05T09:18:22.857Z,3852
2016-12-05T09:19:07.964Z,3824
2016-12-05T09:20:22.890Z,3772
2016-12-05T09:21:08.334Z,4032
2016-12-05T09:22:08.002Z,4188
2016-12-05T09:23:08.015Z,4208
2016-12-05T09:24:08.028Z,4176
2016-12-05T09:25:08.356Z,4412
2016-12-05T09:26:08.060Z,4576
2016-12-05T09:27:08.068Z,4756
2016-12-05T09:28:08.087Z,5044
2016-12-05T09:29:08.105Z,5404
2016-12-05T09:30:08.114Z,5156
2016-12-05T09:31:08.126Z,5104
2016-12-05T09:32:08.140Z,4964
2016-12-05T09:33:08.158Z,5212
2016-12-05T09:34:08.172Z,5612
2016-12-05T09:35:08.190Z,5736
2016-12-05T09:36:08.203Z,5500
2016-12-05T09:37:08.214Z,5460
2016-12-05T09:38:08.234Z,5064
2016-12-05T09:39:08.553Z,4924
2016-12-05T09:40:08.267Z,5288
2016-12-05T09:41:08.269Z,5992
2016-12-05T09:42:08.337Z,5788
2016-12-05T09:44:08.318Z,6028
2016-12-05T09:45:08.333Z,6008
2016-12-05T09:46:08.351Z,5696
2016-12-05T09:47:08.364Z,5580
2016-12-05T09:48:08.374Z,5576
2016-12-05T09:49:23.311Z,5236
2016-12-05T09:50:23.325Z,5028
2016-12-05T09:51:23.342Z,4852
2016-12-05T09:52:08.445Z,4748
2016-12-05T09:53:08.455Z,4508
2016-12-05T09:54:08.469Z,4512
2016-12-05T09:56:08.504Z,4688
2016-12-05T09:57:08.515Z,4584
2016-12-05T09:58:08.522Z,4692
2016-12-05T09:59:08.548Z,4580
2016-12-05T10:00:08.548Z,4464
2016-12-05T10:01:08.573Z,4384
2016-12-05T10:02:23.512Z,4244
2016-12-05T10:03:23.524Z,4416
2016-12-05T10:04:08.618Z,4556
2016-12-05T10:05:08.628Z,4636
2016-12-05T10:06:23.571Z,4740
2016-12-05T10:07:08.660Z,4880
2016-12-05T10:08:08.675Z,5064
2016-12-05T10:09:08.695Z,5016
2016-12-05T10:10:08.706Z,5096
2016-12-05T10:11:08.725Z,5068
2016-12-05T10:12:08.749Z,4900
2016-12-05T10:13:08.753Z,5100
2016-12-05T10:14:08.764Z,4908
2016-12-05T10:15:08.781Z,4588
2016-12-05T10:16:09.095Z,4380
2016-12-05T10:17:08.817Z,4544
2016-12-05T10:18:08.820Z,4700
2016-12-05T10:19:08.842Z,4624
2016-12-05T10:20:08.857Z,4556
2016-12-05T10:21:23.789Z,4644
2016-12-05T10:22:23.799Z,4388
2016-12-05T10:23:09.194Z,4240
2016-12-05T10:24:08.914Z,4120
2016-12-05T10:25:08.933Z,4020
2016-12-05T10:26:08.998Z,3940
2016-12-05T10:27:08.955Z,3904
2016-12-05T10:28:08.970Z,3800
2016-12-05T10:29:08.991Z,3684
2016-12-05T10:30:09.002Z,3612
2016-12-05T10:31:09.011Z,3572
2016-12-05T10:32:09.034Z,3544
2016-12-05T10:33:09.046Z,3532
2016-12-05T10:34:09.095Z,3504
2016-12-05T10:35:09.066Z,3496
2016-12-05T10:37:09.099Z,3520
2016-12-05T10:38:24.036Z,3520
2016-12-05T10:39:24.052Z,3568
2016-12-05T10:40:09.143Z,3492
2016-12-05T10:41:09.194Z,3500
2016-12-05T10:42:24.090Z,3500
2016-12-05T10:43:09.192Z,3480
2016-12-05T10:44:09.195Z,3500
2016-12-05T10:45:09.212Z,3536
2016-12-05T10:46:09.230Z,3532
2016-12-05T10:47:09.242Z,3556
2016-12-05T10:48:09.255Z,3508
2016-12-05T10:49:09.284Z,3524
2016-12-05T10:50:09.286Z,3476
2016-12-05T10:51:09.322Z,3456
2016-12-05T10:52:09.319Z,3460
2016-12-05T10:53:24.261Z,3456
2016-12-05T10:54:24.270Z,3428
2016-12-05T10:55:09.366Z,3436
2016-12-05T10:56:09.412Z,3460
2016-12-05T10:57:09.393Z,3460
2016-12-05T10:58:09.415Z,3460
2016-12-05T10:59:09.422Z,3444
2016-12-05T11:00:09.591Z,3432
2016-12-05T11:01:09.447Z,3436
2016-12-05T11:02:09.769Z,3448
2016-12-05T11:03:24.405Z,3436
2016-12-05T11:04:09.556Z,3444
2016-12-05T11:05:09.504Z,3440
2016-12-05T11:06:09.582Z,3412
2016-12-05T11:07:09.533Z,3408
2016-12-05T11:08:09.553Z,3408
2016-12-05T11:09:09.575Z,3404
2016-12-05T11:10:09.934Z,3400
2016-12-05T11:11:09.597Z,3412
2016-12-05T11:12:09.608Z,3388
2016-12-05T11:13:09.638Z,3392
2016-12-05T11:14:09.650Z,3380
2016-12-05T11:15:09.659Z,3380
2016-12-05T11:16:09.676Z,3384
2016-12-05T11:17:09.708Z,3368
2016-12-05T11:18:09.704Z,3376
2016-12-05T11:19:09.785Z,3380
2016-12-05T11:20:09.732Z,3384
2016-12-05T11:21:09.745Z,3364
2016-12-05T11:22:09.764Z,3360
2016-12-05T11:23:09.780Z,3360
2016-12-05T11:24:24.715Z,3348
2016-12-05T11:25:25.025Z,3352
2016-12-05T11:26:09.817Z,3356
2016-12-05T11:27:09.839Z,3352
2016-12-05T11:28:09.847Z,3348
2016-12-05T11:29:09.872Z,3340
2016-12-05T11:30:09.906Z,3324
2016-12-05T11:31:09.927Z,3324
2016-12-05T11:32:09.907Z,3336
2016-12-05T11:33:09.922Z,3332
2016-12-05T11:34:09.943Z,3364
2016-12-05T11:36:10.065Z,3340
2016-12-05T11:37:24.906Z,3348
2016-12-05T11:39:10.011Z,3280
2016-12-05T11:40:10.026Z,3340
2016-12-05T11:42:10.057Z,3312
2016-12-05T11:43:10.072Z,3312
2016-12-05T11:44:10.083Z,3316
2016-12-05T11:45:10.109Z,3300
2016-12-05T11:46:10.123Z,3300
2016-12-05T11:47:10.131Z,3292
2016-12-05T11:48:10.151Z,3304
2016-12-05T11:49:10.154Z,3280
2016-12-05T11:50:10.178Z,3288
2016-12-05T11:51:10.196Z,3304
2016-12-05T11:52:10.204Z,3224
2016-12-05T11:53:25.145Z,3208
2016-12-05T11:55:10.249Z,3272
2016-12-05T11:56:25.182Z,3212
2016-12-05T11:57:25.201Z,3208
2016-12-05T11:58:10.289Z,3260
2016-12-05T11:59:10.310Z,3256
2016-12-05T12:00:25.242Z,3224
2016-12-05T12:01:10.336Z,3236
2016-12-05T12:02:10.351Z,3176
2016-12-05T12:03:10.368Z,3240
2016-12-05T12:04:10.386Z,3248
2016-12-05T12:05:10.396Z,3252
2016-12-05T12:06:10.407Z,3224
2016-12-05T12:07:10.453Z,3252
2016-12-05T12:08:10.441Z,3240
2016-12-05T12:10:10.466Z,3196
2016-12-05T12:11:25.407Z,3228
2016-12-05T12:12:10.505Z,3224
2016-12-05T12:13:25.438Z,3212
2016-12-05T12:14:10.533Z,3224
2016-12-05T12:15:10.844Z,3188
2016-12-05T12:16:10.567Z,3200
2016-12-05T12:17:10.583Z,3132
2016-12-05T12:18:10.598Z,3216
2016-12-05T12:19:10.604Z,3120
2016-12-05T12:20:10.616Z,3096
2016-12-05T12:21:10.628Z,3148
2016-12-05T12:22:10.647Z,3164
2016-12-05T12:23:10.669Z,3160
2016-12-05T12:24:10.687Z,3172
2016-12-05T12:25:10.701Z,3160
2016-12-05T12:26:10.709Z,3164
2016-12-05T12:27:25.648Z,3136
2016-12-05T12:28:25.670Z,3136
2016-12-05T12:29:25.679Z,3112
2016-12-05T12:30:10.789Z,3140
2016-12-05T12:31:10.791Z,3136
2016-12-05T12:32:10.826Z,3144
2016-12-05T12:33:10.816Z,3136
2016-12-05T12:34:10.830Z,3128
2016-12-05T12:35:10.849Z,3120
2016-12-05T12:37:10.873Z,3076
2016-12-05T12:38:10.891Z,3052
2016-12-05T12:39:10.919Z,3064
2016-12-05T12:40:10.934Z,3076
2016-12-05T12:41:10.935Z,3088
2016-12-05T12:42:25.874Z,3064
2016-12-05T12:43:10.983Z,3016
2016-12-05T12:44:10.986Z,3028
2016-12-05T12:45:10.997Z,3028
2016-12-05T12:48:11.046Z,3036
2016-12-05T12:49:11.053Z,3004
2016-12-05T12:50:11.074Z,3004
2016-12-05T12:51:11.087Z,2972
2016-12-05T12:52:11.105Z,2984
2016-12-05T12:53:11.118Z,2960
2016-12-05T12:54:11.139Z,2960
2016-12-05T12:55:11.158Z,2976
2016-12-05T12:56:11.167Z,2972
2016-12-05T12:57:11.180Z,2952
2016-12-05T12:58:11.192Z,2952
2016-12-05T12:59:26.179Z,2940
2016-12-05T13:00:26.147Z,2868
2016-12-05T13:01:11.239Z,2924
2016-12-05T13:02:11.261Z,2908
2016-12-05T13:03:26.193Z,2872
2016-12-05T13:04:11.287Z,2868
2016-12-05T13:05:11.304Z,2860
2016-12-05T13:06:11.318Z,2856
2016-12-05T13:07:11.332Z,2832
2016-12-05T13:08:11.346Z,2816
2016-12-05T13:10:11.379Z,2812
2016-12-05T13:11:11.397Z,2796
2016-12-05T13:12:11.418Z,2776
2016-12-05T13:13:11.422Z,2756
2016-12-05T13:14:11.448Z,2736
2016-12-05T13:15:11.460Z,2708
2016-12-05T13:16:26.392Z,2704
2016-12-05T13:17:11.486Z,2696
2016-12-05T13:18:11.546Z,2688
2016-12-05T13:19:26.738Z,2700
2016-12-05T13:20:11.554Z,2672
2016-12-05T13:21:26.460Z,2660
2016-12-05T13:22:11.561Z,2660
2016-12-05T13:23:11.579Z,2644
2016-12-05T13:24:11.586Z,2628
2016-12-05T13:25:11.609Z,2612
2016-12-05T13:26:11.618Z,2600
2016-12-05T13:27:26.564Z,2580
2016-12-05T13:28:11.657Z,2572
2016-12-05T13:29:11.665Z,2552
2016-12-05T13:30:26.604Z,2524
2016-12-05T13:31:26.618Z,2496
2016-12-05T13:32:26.635Z,2068
2016-12-05T13:33:12.022Z,2448
2016-12-05T13:34:11.739Z,2416
2016-12-05T13:35:11.760Z,2316
2016-12-05T13:36:11.776Z,2204
2016-12-05T13:37:11.790Z,2324
2016-12-05T13:38:11.804Z,2288
2016-12-05T13:39:11.826Z,1944
2016-12-05T13:40:11.830Z,2012
2016-12-05T13:41:11.852Z,1836
2016-12-05T13:42:11.872Z,1736
2016-12-05T13:43:26.805Z,1820
2016-12-05T13:44:26.819Z,1916
2016-12-05T13:45:11.906Z,1880
2016-12-05T13:46:11.925Z,1716
2016-12-05T13:48:26.875Z,1736
2016-12-05T13:49:11.973Z,1632
2016-12-05T13:50:12.010Z,1600
2016-12-05T13:51:26.917Z,1648
2016-12-05T13:52:12.014Z,1572
2016-12-05T13:53:12.028Z,1556
2016-12-05T13:54:12.594Z,1536
2016-12-05T13:55:12.107Z,1520
2016-12-05T13:56:12.074Z,1504
2016-12-05T13:57:12.094Z,1488
2016-12-05T13:58:27.032Z,1456
2016-12-05T13:59:12.111Z,1444
2016-12-05T14:00:12.134Z,1428
2016-12-05T14:01:27.074Z,1404
2016-12-05T14:02:12.168Z,1396
2016-12-05T14:04:12.195Z,1356
2016-12-05T14:05:12.208Z,1336
2016-12-05T14:06:12.226Z,1316
2016-12-05T14:07:12.245Z,1296
2016-12-05T14:08:12.253Z,1276
2016-12-05T14:09:12.267Z,1256
2016-12-05T14:10:12.278Z,1236
2016-12-05T14:11:12.307Z,1216
2016-12-05T14:12:12.314Z,1196
2016-12-05T14:13:12.321Z,1180
2016-12-05T14:14:12.349Z,1160
2016-12-05T14:15:12.359Z,1136
2016-12-05T14:16:12.403Z,1116
2016-12-05T14:17:12.380Z,1088
2016-12-05T14:18:12.406Z,1068
2016-12-05T14:19:12.427Z,1040
2016-12-05T14:20:12.465Z,1016
2016-12-05T14:21:12.470Z,992
2016-12-05T14:22:12.460Z,968
2016-12-05T14:23:12.475Z,940
2016-12-05T14:24:12.491Z,916
2016-12-05T14:25:12.512Z,892
2016-12-05T14:26:12.521Z,860
2016-12-05T14:27:12.535Z,828
2016-12-05T14:28:12.539Z,796
2016-12-05T14:29:12.611Z,764
2016-12-05T14:30:12.578Z,732
2016-12-05T14:31:12.589Z,704
2016-12-05T14:32:12.612Z,676
2016-12-05T14:33:12.621Z,652
2016-12-05T14:35:27.568Z,600
2016-12-05T14:36:12.668Z,580
2016-12-05T14:37:12.675Z,548
2016-12-05T14:38:12.689Z,520
2016-12-05T14:39:12.768Z,492
2016-12-05T14:40:12.770Z,460
2016-12-05T14:42:12.745Z,404
2016-12-05T14:43:12.757Z,380
2016-12-05T14:44:12.787Z,356
2016-12-05T14:45:12.790Z,332
2016-12-05T14:46:12.813Z,312
2016-12-05T14:47:13.129Z,296
2016-12-05T14:48:12.832Z,276
2016-12-05T14:50:12.861Z,244
2016-12-05T14:51:27.802Z,220
2016-12-05T14:52:27.812Z,204
2016-12-05T14:53:12.920Z,192
2016-12-05T14:54:12.925Z,180
2016-12-05T14:55:12.945Z,168
2016-12-05T14:56:12.956Z,152
2016-12-05T14:57:13.266Z,140
2016-12-05T14:58:13.288Z,128
2016-12-05T14:59:12.999Z,116
2016-12-05T15:00:13.010Z,108
2016-12-05T15:01:27.998Z,96
2016-12-05T15:02:13.043Z,88